sensor_id;sensor_type;location;lat;lon;timestamp;temperature;humidity
15951;DHT22;8074;48.112;11.570;2022-09-09T00:01:08;15.70;99.90
15951;DHT22;8074;48.112;11.570;2022-09-09T00:03:43;15.60;99.90
15951;DHT22;8074;48.112;11.570;2022-09-09T00:06:16;15.50;99.90
15951;DHT22;8074;48.112;11.570;2022-09-09T00:08:56;15.40;99.90
15951;DHT22;8074;48.112;11.570;2022-09-09T00:11:34;15.20;99.90
15951;DHT22;8074;48.112;11.570;2022-09-09T00:14:09;15.20;99.90
15951;DHT22;8074;48.112;11.570;2022-09-09T00:16:42;15.20;99.90
15951;DHT22;8074;48.112;11.570;2022-09-09T00:19:17;15.20;99.90
15951;DHT22;8074;48.112;11.570;2022-09-09T00:21:52;15.40;99.90
15951;DHT22;8074;48.112;11.570;2022-09-09T00:24:27;15.50;99.90
15951;DHT22;8074;48.112;11.570;2022-09-09T00:27:01;15.60;99.90
15951;DHT22;8074;48.112;11.570;2022-09-09T00:29:37;15.50;99.90
15951;DHT22;8074;48.112;11.570;2022-09-09T00:32:13;15.70;99.90
15951;DHT22;8074;48.112;11.570;2022-09-09T00:34:48;15.70;99.90
15951;DHT22;8074;48.112;11.570;2022-09-09T00:37:16;15.70;99.90
15951;DHT22;8074;48.112;11.570;2022-09-09T00:39:46;15.70;99.90
15951;DHT22;8074;48.112;11.570;2022-09-09T00:42:15;15.60;99.90
15951;DHT22;8074;48.112;11.570;2022-09-09T00:44:58;15.50;99.90
15951;DHT22;8074;48.112;11.570;2022-09-09T00:47:48;15.30;99.90
15951;DHT22;8074;48.112;11.570;2022-09-09T00:50:35;15.20;99.90
15951;DHT22;8074;48.112;11.570;2022-09-09T00:53:17;15.30;99.90
15951;DHT22;8074;48.112;11.570;2022-09-09T00:55:49;15.40;99.90
15951;DHT22;8074;48.112;11.570;2022-09-09T00:58:17;15.60;99.90
15951;DHT22;8074;48.112;11.570;2022-09-09T01:01:04;15.60;99.90
15951;DHT22;8074;48.112;11.570;2022-09-09T01:03:53;15.70;99.90
15951;DHT22;8074;48.112;11.570;2022-09-09T01:06:24;15.90;99.90
15951;DHT22;8074;48.112;11.570;2022-09-09T01:09:11;16.00;99.90
15951;DHT22;8074;48.112;11.570;2022-09-09T01:12:01;16.10;99.90
15951;DHT22;8074;48.112;11.570;2022-09-09T01:14:39;16.00;99.90
15951;DHT22;8074;48.112;11.570;2022-09-09T01:17:15;16.00;99.90
15951;DHT22;8074;48.112;11.570;2022-09-09T01:19:54;15.80;99.90
15951;DHT22;8074;48.112;11.570;2022-09-09T01:22:28;15.90;99.90
15951;DHT22;8074;48.112;11.570;2022-09-09T01:25:26;15.90;99.90
15951;DHT22;8074;48.112;11.570;2022-09-09T01:27:57;16.00;99.90
15951;DHT22;8074;48.112;11.570;2022-09-09T01:30:26;15.90;99.90
15951;DHT22;8074;48.112;11.570;2022-09-09T01:32:55;15.90;99.90
15951;DHT22;8074;48.112;11.570;2022-09-09T01:35:32;15.90;99.90
15951;DHT22;8074;48.112;11.570;2022-09-09T01:37:59;15.90;99.90
15951;DHT22;8074;48.112;11.570;2022-09-09T01:40:26;15.60;99.90
15951;DHT22;8074;48.112;11.570;2022-09-09T01:42:55;15.50;99.90
15951;DHT22;8074;48.112;11.570;2022-09-09T01:45:24;15.40;99.90
15951;DHT22;8074;48.112;11.570;2022-09-09T01:47:52;15.30;99.90
15951;DHT22;8074;48.112;11.570;2022-09-09T01:50:20;15.30;99.90
15951;DHT22;8074;48.112;11.570;2022-09-09T01:52:50;15.30;99.90
15951;DHT22;8074;48.112;11.570;2022-09-09T01:55:25;15.30;99.90
15951;DHT22;8074;48.112;11.570;2022-09-09T01:58:06;15.30;99.90
15951;DHT22;8074;48.112;11.570;2022-09-09T02:00:42;15.50;99.90
15951;DHT22;8074;48.112;11.570;2022-09-09T02:03:18;15.80;99.90
15951;DHT22;8074;48.112;11.570;2022-09-09T02:05:55;15.90;99.90
15951;DHT22;8074;48.112;11.570;2022-09-09T02:08:28;16.00;99.90
15951;DHT22;8074;48.112;11.570;2022-09-09T02:11:03;16.00;99.90
15951;DHT22;8074;48.112;11.570;2022-09-09T02:13:35;15.90;99.90
15951;DHT22;8074;48.112;11.570;2022-09-09T02:16:07;15.90;99.90
15951;DHT22;8074;48.112;11.570;2022-09-09T02:18:38;15.90;99.90
15951;DHT22;8074;48.112;11.570;2022-09-09T02:21:07;15.90;99.90
15951;DHT22;8074;48.112;11.570;2022-09-09T02:23:35;15.90;99.90
15951;DHT22;8074;48.112;11.570;2022-09-09T02:26:02;15.90;99.90
15951;DHT22;8074;48.112;11.570;2022-09-09T02:28:33;15.80;99.90
15951;DHT22;8074;48.112;11.570;2022-09-09T02:31:01;15.60;99.90
15951;DHT22;8074;48.112;11.570;2022-09-09T02:33:32;15.80;99.90
15951;DHT22;8074;48.112;11.570;2022-09-09T02:36:02;15.90;99.90
15951;DHT22;8074;48.112;11.570;2022-09-09T02:38:35;15.80;99.90
15951;DHT22;8074;48.112;11.570;2022-09-09T02:41:02;15.40;99.90
15951;DHT22;8074;48.112;11.570;2022-09-09T02:43:31;15.20;99.90
15951;DHT22;8074;48.112;11.570;2022-09-09T02:46:07;15.20;99.90
15951;DHT22;8074;48.112;11.570;2022-09-09T02:48:40;15.30;99.90
15951;DHT22;8074;48.112;11.570;2022-09-09T02:51:18;15.20;99.90
15951;DHT22;8074;48.112;11.570;2022-09-09T02:53:49;15.10;99.90
15951;DHT22;8074;48.112;11.570;2022-09-09T02:56:20;15.10;99.90
15951;DHT22;8074;48.112;11.570;2022-09-09T02:58:49;15.10;99.90
15951;DHT22;8074;48.112;11.570;2022-09-09T03:01:18;15.10;99.90
15951;DHT22;8074;48.112;11.570;2022-09-09T03:03:45;15.00;99.90
15951;DHT22;8074;48.112;11.570;2022-09-09T03:06:13;15.10;99.90
15951;DHT22;8074;48.112;11.570;2022-09-09T03:08:40;15.10;99.90
15951;DHT22;8074;48.112;11.570;2022-09-09T03:11:07;15.30;99.90
15951;DHT22;8074;48.112;11.570;2022-09-09T03:13:35;15.60;99.90
15951;DHT22;8074;48.112;11.570;2022-09-09T03:16:03;15.60;99.90
15951;DHT22;8074;48.112;11.570;2022-09-09T03:18:32;15.50;99.90
15951;DHT22;8074;48.112;11.570;2022-09-09T03:21:00;15.40;99.90
15951;DHT22;8074;48.112;11.570;2022-09-09T03:23:27;15.30;99.90
15951;DHT22;8074;48.112;11.570;2022-09-09T03:25:54;15.10;99.90
15951;DHT22;8074;48.112;11.570;2022-09-09T03:28:24;15.10;99.90
15951;DHT22;8074;48.112;11.570;2022-09-09T03:30:59;15.00;99.90
15951;DHT22;8074;48.112;11.570;2022-09-09T03:33:26;14.90;99.90
15951;DHT22;8074;48.112;11.570;2022-09-09T03:35:54;14.80;99.90
15951;DHT22;8074;48.112;11.570;2022-09-09T03:38:22;14.90;99.90
15951;DHT22;8074;48.112;11.570;2022-09-09T03:40:50;14.90;99.90
15951;DHT22;8074;48.112;11.570;2022-09-09T03:43:20;15.00;99.90
15951;DHT22;8074;48.112;11.570;2022-09-09T03:45:48;15.10;99.90
15951;DHT22;8074;48.112;11.570;2022-09-09T03:48:16;15.20;99.90
15951;DHT22;8074;48.112;11.570;2022-09-09T03:50:46;15.10;99.90
15951;DHT22;8074;48.112;11.570;2022-09-09T03:53:16;14.90;99.90
15951;DHT22;8074;48.112;11.570;2022-09-09T03:55:45;15.10;99.90
15951;DHT22;8074;48.112;11.570;2022-09-09T03:58:12;15.30;99.90
15951;DHT22;8074;48.112;11.570;2022-09-09T04:00:39;15.20;99.90
15951;DHT22;8074;48.112;11.570;2022-09-09T04:03:08;15.30;99.90
15951;DHT22;8074;48.112;11.570;2022-09-09T04:05:35;15.40;99.90
15951;DHT22;8074;48.112;11.570;2022-09-09T04:08:05;15.50;99.90
15951;DHT22;8074;48.112;11.570;2022-09-09T04:10:34;15.60;99.90
15951;DHT22;8074;48.112;11.570;2022-09-09T04:13:02;15.50;99.90
15951;DHT22;8074;48.112;11.570;2022-09-09T04:15:30;15.40;99.90
15951;DHT22;8074;48.112;11.570;2022-09-09T04:17:57;15.50;99.90
15951;DHT22;8074;48.112;11.570;2022-09-09T04:20:24;15.30;99.90
15951;DHT22;8074;48.112;11.570;2022-09-09T04:22:51;15.40;99.90
15951;DHT22;8074;48.112;11.570;2022-09-09T04:25:18;15.30;99.90
15951;DHT22;8074;48.112;11.570;2022-09-09T04:27:46;15.20;99.90
15951;DHT22;8074;48.112;11.570;2022-09-09T04:30:14;15.10;99.90
15951;DHT22;8074;48.112;11.570;2022-09-09T04:32:42;14.90;99.90
15951;DHT22;8074;48.112;11.570;2022-09-09T04:35:09;15.00;99.90
15951;DHT22;8074;48.112;11.570;2022-09-09T04:37:37;15.20;99.90
15951;DHT22;8074;48.112;11.570;2022-09-09T04:40:04;15.30;99.90
15951;DHT22;8074;48.112;11.570;2022-09-09T04:42:34;15.20;99.90
15951;DHT22;8074;48.112;11.570;2022-09-09T04:45:03;15.00;99.90
15951;DHT22;8074;48.112;11.570;2022-09-09T04:47:31;14.90;99.90
15951;DHT22;8074;48.112;11.570;2022-09-09T04:50:00;14.80;99.90
15951;DHT22;8074;48.112;11.570;2022-09-09T04:52:27;14.90;99.90
15951;DHT22;8074;48.112;11.570;2022-09-09T04:54:54;14.80;99.90
15951;DHT22;8074;48.112;11.570;2022-09-09T04:57:21;15.00;99.90
15951;DHT22;8074;48.112;11.570;2022-09-09T04:59:48;15.20;99.90
15951;DHT22;8074;48.112;11.570;2022-09-09T05:02:17;15.10;99.90
15951;DHT22;8074;48.112;11.570;2022-09-09T05:04:44;15.00;99.90
15951;DHT22;8074;48.112;11.570;2022-09-09T05:07:11;14.90;99.90
15951;DHT22;8074;48.112;11.570;2022-09-09T05:09:40;15.00;99.90
15951;DHT22;8074;48.112;11.570;2022-09-09T05:12:07;15.20;99.90
15951;DHT22;8074;48.112;11.570;2022-09-09T05:14:34;15.30;99.90
15951;DHT22;8074;48.112;11.570;2022-09-09T05:17:03;15.00;99.90
15951;DHT22;8074;48.112;11.570;2022-09-09T05:19:31;14.80;99.90
15951;DHT22;8074;48.112;11.570;2022-09-09T05:21:58;14.60;99.90
15951;DHT22;8074;48.112;11.570;2022-09-09T05:24:26;14.60;99.90
15951;DHT22;8074;48.112;11.570;2022-09-09T05:26:54;14.60;99.90
15951;DHT22;8074;48.112;11.570;2022-09-09T05:29:25;14.70;99.90
15951;DHT22;8074;48.112;11.570;2022-09-09T05:31:56;14.60;99.90
15951;DHT22;8074;48.112;11.570;2022-09-09T05:34:42;14.60;99.90
15951;DHT22;8074;48.112;11.570;2022-09-09T05:37:09;14.60;99.90
15951;DHT22;8074;48.112;11.570;2022-09-09T05:39:36;14.90;99.90
15951;DHT22;8074;48.112;11.570;2022-09-09T05:42:04;15.10;99.90
15951;DHT22;8074;48.112;11.570;2022-09-09T05:44:32;14.90;99.90
15951;DHT22;8074;48.112;11.570;2022-09-09T05:47:03;14.90;99.90
15951;DHT22;8074;48.112;11.570;2022-09-09T05:49:34;14.90;99.90
15951;DHT22;8074;48.112;11.570;2022-09-09T05:52:07;15.10;99.90
15951;DHT22;8074;48.112;11.570;2022-09-09T05:54:40;14.90;99.90
15951;DHT22;8074;48.112;11.570;2022-09-09T05:57:08;15.00;99.90
15951;DHT22;8074;48.112;11.570;2022-09-09T05:59:35;15.10;99.90
15951;DHT22;8074;48.112;11.570;2022-09-09T06:02:04;15.10;99.90
15951;DHT22;8074;48.112;11.570;2022-09-09T06:04:32;15.20;99.90
15951;DHT22;8074;48.112;11.570;2022-09-09T06:06:59;15.10;99.90
15951;DHT22;8074;48.112;11.570;2022-09-09T06:09:28;15.20;99.90
15951;DHT22;8074;48.112;11.570;2022-09-09T06:11:56;15.30;99.90
15951;DHT22;8074;48.112;11.570;2022-09-09T06:14:24;15.40;99.90
15951;DHT22;8074;48.112;11.570;2022-09-09T06:17:11;15.80;99.90
15951;DHT22;8074;48.112;11.570;2022-09-09T06:19:39;16.10;99.90
15951;DHT22;8074;48.112;11.570;2022-09-09T06:22:06;16.30;99.90
15951;DHT22;8074;48.112;11.570;2022-09-09T06:24:36;16.20;99.90
15951;DHT22;8074;48.112;11.570;2022-09-09T06:27:04;16.20;99.90
15951;DHT22;8074;48.112;11.570;2022-09-09T06:29:33;16.10;99.90
15951;DHT22;8074;48.112;11.570;2022-09-09T06:32:07;16.10;99.90
15951;DHT22;8074;48.112;11.570;2022-09-09T06:34:36;16.10;99.90
15951;DHT22;8074;48.112;11.570;2022-09-09T06:37:03;16.00;99.90
15951;DHT22;8074;48.112;11.570;2022-09-09T06:39:31;16.10;99.90
15951;DHT22;8074;48.112;11.570;2022-09-09T06:42:00;16.20;99.90
15951;DHT22;8074;48.112;11.570;2022-09-09T06:44:30;16.10;99.90
15951;DHT22;8074;48.112;11.570;2022-09-09T06:46:59;16.00;99.90
15951;DHT22;8074;48.112;11.570;2022-09-09T06:49:26;16.00;99.90
15951;DHT22;8074;48.112;11.570;2022-09-09T06:51:53;16.00;99.90
15951;DHT22;8074;48.112;11.570;2022-09-09T06:54:20;16.00;99.90
15951;DHT22;8074;48.112;11.570;2022-09-09T06:56:49;16.00;99.90
15951;DHT22;8074;48.112;11.570;2022-09-09T06:59:19;16.00;99.90
15951;DHT22;8074;48.112;11.570;2022-09-09T07:01:46;16.10;99.90
15951;DHT22;8074;48.112;11.570;2022-09-09T07:04:17;16.20;99.90
15951;DHT22;8074;48.112;11.570;2022-09-09T07:06:45;16.30;99.90
15951;DHT22;8074;48.112;11.570;2022-09-09T07:09:15;16.40;99.90
15951;DHT22;8074;48.112;11.570;2022-09-09T07:11:48;16.30;99.90
15951;DHT22;8074;48.112;11.570;2022-09-09T07:14:17;16.50;99.90
15951;DHT22;8074;48.112;11.570;2022-09-09T07:16:51;16.70;99.90
15951;DHT22;8074;48.112;11.570;2022-09-09T07:19:18;16.60;99.90
15951;DHT22;8074;48.112;11.570;2022-09-09T07:21:45;16.60;99.90
15951;DHT22;8074;48.112;11.570;2022-09-09T07:24:16;16.70;99.90
15951;DHT22;8074;48.112;11.570;2022-09-09T07:26:43;16.60;99.90
15951;DHT22;8074;48.112;11.570;2022-09-09T07:29:12;16.50;99.90
15951;DHT22;8074;48.112;11.570;2022-09-09T07:31:43;16.50;99.90
15951;DHT22;8074;48.112;11.570;2022-09-09T07:34:15;16.70;99.90
15951;DHT22;8074;48.112;11.570;2022-09-09T07:37:01;16.90;99.90
15951;DHT22;8074;48.112;11.570;2022-09-09T07:39:39;17.10;99.90
15951;DHT22;8074;48.112;11.570;2022-09-09T07:42:07;17.30;99.90
15951;DHT22;8074;48.112;11.570;2022-09-09T07:44:35;17.50;99.90
15951;DHT22;8074;48.112;11.570;2022-09-09T07:47:06;17.60;99.90
15951;DHT22;8074;48.112;11.570;2022-09-09T07:49:34;17.90;99.90
15951;DHT22;8074;48.112;11.570;2022-09-09T07:52:02;18.00;99.90
15951;DHT22;8074;48.112;11.570;2022-09-09T07:54:29;18.10;99.90
15951;DHT22;8074;48.112;11.570;2022-09-09T07:56:57;18.00;99.90
15951;DHT22;8074;48.112;11.570;2022-09-09T07:59:24;17.90;99.90
15951;DHT22;8074;48.112;11.570;2022-09-09T08:01:51;17.90;99.90
15951;DHT22;8074;48.112;11.570;2022-09-09T08:04:21;17.80;99.90
15951;DHT22;8074;48.112;11.570;2022-09-09T08:06:51;17.70;99.90
15951;DHT22;8074;48.112;11.570;2022-09-09T08:09:19;17.60;99.90
15951;DHT22;8074;48.112;11.570;2022-09-09T08:11:46;17.80;99.90
15951;DHT22;8074;48.112;11.570;2022-09-09T08:14:13;17.90;99.90
15951;DHT22;8074;48.112;11.570;2022-09-09T08:16:44;18.10;99.90
15951;DHT22;8074;48.112;11.570;2022-09-09T08:19:12;17.90;99.90
15951;DHT22;8074;48.112;11.570;2022-09-09T08:22:03;17.90;99.90
15951;DHT22;8074;48.112;11.570;2022-09-09T08:24:50;18.10;99.90
15951;DHT22;8074;48.112;11.570;2022-09-09T08:27:38;18.10;99.90
15951;DHT22;8074;48.112;11.570;2022-09-09T08:30:25;18.00;99.90
15951;DHT22;8074;48.112;11.570;2022-09-09T08:32:52;18.10;99.90
15951;DHT22;8074;48.112;11.570;2022-09-09T08:35:49;18.40;99.90
15951;DHT22;8074;48.112;11.570;2022-09-09T08:38:49;18.60;99.90
15951;DHT22;8074;48.112;11.570;2022-09-09T08:42:11;18.60;99.90
15951;DHT22;8074;48.112;11.570;2022-09-09T08:45:17;18.60;99.90
15951;DHT22;8074;48.112;11.570;2022-09-09T08:47:55;18.10;99.90
15951;DHT22;8074;48.112;11.570;2022-09-09T08:50:26;18.20;99.90
15951;DHT22;8074;48.112;11.570;2022-09-09T08:53:00;18.30;99.90
15951;DHT22;8074;48.112;11.570;2022-09-09T08:55:37;18.40;99.90
15951;DHT22;8074;48.112;11.570;2022-09-09T08:58:11;18.50;99.90
15951;DHT22;8074;48.112;11.570;2022-09-09T09:00:46;18.60;99.90
15951;DHT22;8074;48.112;11.570;2022-09-09T09:03:24;18.60;99.90
15951;DHT22;8074;48.112;11.570;2022-09-09T09:06:01;18.50;99.90
15951;DHT22;8074;48.112;11.570;2022-09-09T09:08:38;18.70;99.90
15951;DHT22;8074;48.112;11.570;2022-09-09T09:11:35;18.90;99.90
15951;DHT22;8074;48.112;11.570;2022-09-09T09:14:14;18.80;99.90
15951;DHT22;8074;48.112;11.570;2022-09-09T09:17:01;18.60;99.90
15951;DHT22;8074;48.112;11.570;2022-09-09T09:19:32;18.60;99.90
15951;DHT22;8074;48.112;11.570;2022-09-09T09:22:06;18.60;99.90
15951;DHT22;8074;48.112;11.570;2022-09-09T09:24:48;18.90;99.90
15951;DHT22;8074;48.112;11.570;2022-09-09T09:27:25;19.10;99.90
15951;DHT22;8074;48.112;11.570;2022-09-09T09:30:27;19.60;99.90
15951;DHT22;8074;48.112;11.570;2022-09-09T09:33:20;19.80;99.90
15951;DHT22;8074;48.112;11.570;2022-09-09T09:36:08;19.50;99.90
15951;DHT22;8074;48.112;11.570;2022-09-09T09:38:58;19.40;99.90
15951;DHT22;8074;48.112;11.570;2022-09-09T09:41:46;19.00;99.90
15951;DHT22;8074;48.112;11.570;2022-09-09T09:44:43;19.20;99.90
15951;DHT22;8074;48.112;11.570;2022-09-09T09:47:30;19.30;99.90
15951;DHT22;8074;48.112;11.570;2022-09-09T09:50:19;18.70;99.90
15951;DHT22;8074;48.112;11.570;2022-09-09T09:53:20;18.50;99.90
15951;DHT22;8074;48.112;11.570;2022-09-09T09:56:13;18.50;99.90
15951;DHT22;8074;48.112;11.570;2022-09-09T09:59:23;18.40;99.90
15951;DHT22;8074;48.112;11.570;2022-09-09T10:02:40;18.40;99.90
15951;DHT22;8074;48.112;11.570;2022-09-09T10:05:31;18.40;99.90
15951;DHT22;8074;48.112;11.570;2022-09-09T10:14:45;17.80;99.90
15951;DHT22;8074;48.112;11.570;2022-09-09T10:17:53;17.90;99.90
15951;DHT22;8074;48.112;11.570;2022-09-09T10:20:32;17.90;99.90
15951;DHT22;8074;48.112;11.570;2022-09-09T10:23:10;17.80;99.90
15951;DHT22;8074;48.112;11.570;2022-09-09T10:25:56;17.60;99.90
15951;DHT22;8074;48.112;11.570;2022-09-09T10:28:40;17.40;99.90
15951;DHT22;8074;48.112;11.570;2022-09-09T10:31:18;17.40;99.90
15951;DHT22;8074;48.112;11.570;2022-09-09T10:33:57;17.20;99.90
15951;DHT22;8074;48.112;11.570;2022-09-09T10:36:28;17.20;99.90
15951;DHT22;8074;48.112;11.570;2022-09-09T10:38:59;17.30;99.90
15951;DHT22;8074;48.112;11.570;2022-09-09T10:44:39;17.40;99.90
15951;DHT22;8074;48.112;11.570;2022-09-09T10:47:24;17.60;99.90
15951;DHT22;8074;48.112;11.570;2022-09-09T10:50:12;17.80;99.90
15951;DHT22;8074;48.112;11.570;2022-09-09T10:52:48;17.70;99.90
15951;DHT22;8074;48.112;11.570;2022-09-09T10:55:20;17.60;99.90
15951;DHT22;8074;48.112;11.570;2022-09-09T10:57:49;17.80;99.90
15951;DHT22;8074;48.112;11.570;2022-09-09T11:00:20;18.00;99.90
15951;DHT22;8074;48.112;11.570;2022-09-09T11:03:03;18.00;99.90
15951;DHT22;8074;48.112;11.570;2022-09-09T11:05:41;18.20;99.90
15951;DHT22;8074;48.112;11.570;2022-09-09T11:08:13;18.30;99.90
15951;DHT22;8074;48.112;11.570;2022-09-09T11:11:02;18.50;99.90
15951;DHT22;8074;48.112;11.570;2022-09-09T11:13:53;18.60;99.90
15951;DHT22;8074;48.112;11.570;2022-09-09T11:16:25;18.80;99.90
15951;DHT22;8074;48.112;11.570;2022-09-09T11:18:58;19.10;99.90
15951;DHT22;8074;48.112;11.570;2022-09-09T11:21:32;19.00;99.90
15951;DHT22;8074;48.112;11.570;2022-09-09T11:24:03;18.60;99.90
15951;DHT22;8074;48.112;11.570;2022-09-09T11:26:37;18.70;99.90
15951;DHT22;8074;48.112;11.570;2022-09-09T11:29:36;18.40;99.90
15951;DHT22;8074;48.112;11.570;2022-09-09T11:32:51;18.60;99.90
15951;DHT22;8074;48.112;11.570;2022-09-09T11:35:34;18.60;99.90
15951;DHT22;8074;48.112;11.570;2022-09-09T11:38:19;18.90;99.90
15951;DHT22;8074;48.112;11.570;2022-09-09T11:40:56;19.10;99.90
15951;DHT22;8074;48.112;11.570;2022-09-09T11:43:48;19.30;99.90
15951;DHT22;8074;48.112;11.570;2022-09-09T11:46:31;19.00;99.90
15951;DHT22;8074;48.112;11.570;2022-09-09T11:51:27;19.10;99.90
15951;DHT22;8074;48.112;11.570;2022-09-09T12:07:38;19.00;99.90
15951;DHT22;8074;48.112;11.570;2022-09-09T12:10:20;19.20;99.90
15951;DHT22;8074;48.112;11.570;2022-09-09T12:12:48;19.40;99.90
15951;DHT22;8074;48.112;11.570;2022-09-09T12:17:46;19.40;99.90
15951;DHT22;8074;48.112;11.570;2022-09-09T12:20:16;19.60;99.90
15951;DHT22;8074;48.112;11.570;2022-09-09T12:25:59;19.40;99.90
15951;DHT22;8074;48.112;11.570;2022-09-09T12:28:52;19.30;99.90
15951;DHT22;8074;48.112;11.570;2022-09-09T12:31:24;19.40;99.90
15951;DHT22;8074;48.112;11.570;2022-09-09T12:33:52;19.90;99.90
15951;DHT22;8074;48.112;11.570;2022-09-09T12:36:23;20.10;99.90
15951;DHT22;8074;48.112;11.570;2022-09-09T12:39:10;20.10;99.90
15951;DHT22;8074;48.112;11.570;2022-09-09T12:42:01;20.10;99.90
15951;DHT22;8074;48.112;11.570;2022-09-09T12:44:30;19.40;99.90
15951;DHT22;8074;48.112;11.570;2022-09-09T12:47:01;19.70;99.90
15951;DHT22;8074;48.112;11.570;2022-09-09T12:49:32;19.60;99.90
15951;DHT22;8074;48.112;11.570;2022-09-09T12:52:04;19.70;99.90
15951;DHT22;8074;48.112;11.570;2022-09-09T12:54:37;19.90;99.90
15951;DHT22;8074;48.112;11.570;2022-09-09T12:57:23;20.00;99.90
15951;DHT22;8074;48.112;11.570;2022-09-09T12:59:51;20.30;99.90
15951;DHT22;8074;48.112;11.570;2022-09-09T13:02:21;20.40;99.90
15951;DHT22;8074;48.112;11.570;2022-09-09T13:05:05;19.70;99.90
15951;DHT22;8074;48.112;11.570;2022-09-09T13:07:48;19.30;99.90
15951;DHT22;8074;48.112;11.570;2022-09-09T13:10:22;19.30;99.90
15951;DHT22;8074;48.112;11.570;2022-09-09T13:13:13;19.50;99.90
15951;DHT22;8074;48.112;11.570;2022-09-09T13:15:49;19.40;99.90
15951;DHT22;8074;48.112;11.570;2022-09-09T13:18:19;19.10;99.90
15951;DHT22;8074;48.112;11.570;2022-09-09T13:28:52;19.10;99.90
15951;DHT22;8074;48.112;11.570;2022-09-09T13:31:37;19.10;99.90
15951;DHT22;8074;48.112;11.570;2022-09-09T13:37:22;18.80;99.90
15951;DHT22;8074;48.112;11.570;2022-09-09T13:39:52;18.60;99.90
15951;DHT22;8074;48.112;11.570;2022-09-09T13:42:24;19.00;99.90
15951;DHT22;8074;48.112;11.570;2022-09-09T13:44:53;19.20;99.90
15951;DHT22;8074;48.112;11.570;2022-09-09T13:47:26;19.40;99.90
15951;DHT22;8074;48.112;11.570;2022-09-09T13:49:54;18.80;99.90
15951;DHT22;8074;48.112;11.570;2022-09-09T13:52:44;18.60;99.90
15951;DHT22;8074;48.112;11.570;2022-09-09T13:55:13;18.40;99.90
15951;DHT22;8074;48.112;11.570;2022-09-09T13:57:56;18.50;99.90
15951;DHT22;8074;48.112;11.570;2022-09-09T14:09:05;18.00;99.90
15951;DHT22;8074;48.112;11.570;2022-09-09T14:11:33;18.20;99.90
15951;DHT22;8074;48.112;11.570;2022-09-09T14:14:00;18.50;99.90
15951;DHT22;8074;48.112;11.570;2022-09-09T14:16:28;18.40;99.90
15951;DHT22;8074;48.112;11.570;2022-09-09T14:18:55;18.10;99.90
15951;DHT22;8074;48.112;11.570;2022-09-09T14:21:23;18.20;99.90
15951;DHT22;8074;48.112;11.570;2022-09-09T14:23:50;18.20;99.90
15951;DHT22;8074;48.112;11.570;2022-09-09T14:26:20;18.30;99.90
15951;DHT22;8074;48.112;11.570;2022-09-09T14:28:48;18.40;99.90
15951;DHT22;8074;48.112;11.570;2022-09-09T14:31:16;18.50;99.90
15951;DHT22;8074;48.112;11.570;2022-09-09T14:33:59;18.40;99.90
15951;DHT22;8074;48.112;11.570;2022-09-09T14:47:00;18.10;99.90
15951;DHT22;8074;48.112;11.570;2022-09-09T14:49:27;18.10;99.90
15951;DHT22;8074;48.112;11.570;2022-09-09T14:51:54;18.20;99.90
15951;DHT22;8074;48.112;11.570;2022-09-09T14:54:21;18.20;99.90
15951;DHT22;8074;48.112;11.570;2022-09-09T14:56:49;18.20;99.90
15951;DHT22;8074;48.112;11.570;2022-09-09T14:59:16;18.40;99.90
15951;DHT22;8074;48.112;11.570;2022-09-09T15:01:43;18.50;99.90
15951;DHT22;8074;48.112;11.570;2022-09-09T15:12:40;18.30;99.90
15951;DHT22;8074;48.112;11.570;2022-09-09T15:15:12;18.40;99.90
15951;DHT22;8074;48.112;11.570;2022-09-09T15:17:54;18.50;99.90
15951;DHT22;8074;48.112;11.570;2022-09-09T15:20:24;18.50;99.90
15951;DHT22;8074;48.112;11.570;2022-09-09T15:22:51;18.70;99.90
15951;DHT22;8074;48.112;11.570;2022-09-09T15:25:18;18.70;99.90
15951;DHT22;8074;48.112;11.570;2022-09-09T15:27:48;18.70;99.90
15951;DHT22;8074;48.112;11.570;2022-09-09T15:30:21;18.60;99.90
15951;DHT22;8074;48.112;11.570;2022-09-09T15:32:49;18.50;99.90
15951;DHT22;8074;48.112;11.570;2022-09-09T15:35:16;18.50;99.90
15951;DHT22;8074;48.112;11.570;2022-09-09T15:37:44;18.30;99.90
15951;DHT22;8074;48.112;11.570;2022-09-09T15:40:12;18.10;99.90
15951;DHT22;8074;48.112;11.570;2022-09-09T15:42:39;18.10;99.90
15951;DHT22;8074;48.112;11.570;2022-09-09T15:45:10;18.10;99.90
15951;DHT22;8074;48.112;11.570;2022-09-09T15:47:38;18.20;99.90
15951;DHT22;8074;48.112;11.570;2022-09-09T15:50:06;18.70;99.90
15951;DHT22;8074;48.112;11.570;2022-09-09T15:52:33;20.20;99.90
15951;DHT22;8074;48.112;11.570;2022-09-09T15:55:00;21.30;99.90
15951;DHT22;8074;48.112;11.570;2022-09-09T15:57:27;21.50;99.90
15951;DHT22;8074;48.112;11.570;2022-09-09T15:59:54;21.70;99.90
15951;DHT22;8074;48.112;11.570;2022-09-09T16:04:54;20.20;99.90
15951;DHT22;8074;48.112;11.570;2022-09-09T16:14:42;18.60;99.90
15951;DHT22;8074;48.112;11.570;2022-09-09T16:17:09;18.70;99.90
15951;DHT22;8074;48.112;11.570;2022-09-09T16:19:36;19.90;99.90
15951;DHT22;8074;48.112;11.570;2022-09-09T16:22:05;20.90;99.90
15951;DHT22;8074;48.112;11.570;2022-09-09T16:24:33;21.60;99.90
15951;DHT22;8074;48.112;11.570;2022-09-09T16:27:00;22.40;99.90
15951;DHT22;8074;48.112;11.570;2022-09-09T16:32:35;23.60;99.90
15951;DHT22;8074;48.112;11.570;2022-09-09T16:45:20;23.10;99.90
15951;DHT22;8074;48.112;11.570;2022-09-09T16:47:47;23.10;99.90
15951;DHT22;8074;48.112;11.570;2022-09-09T16:50:30;22.30;99.90
15951;DHT22;8074;48.112;11.570;2022-09-09T16:52:57;21.50;99.90
15951;DHT22;8074;48.112;11.570;2022-09-09T16:55:41;20.20;99.90
15951;DHT22;8074;48.112;11.570;2022-09-09T17:09:37;18.60;99.90
15951;DHT22;8074;48.112;11.570;2022-09-09T17:12:10;18.40;99.90
15951;DHT22;8074;48.112;11.570;2022-09-09T17:14:51;18.20;99.90
15951;DHT22;8074;48.112;11.570;2022-09-09T17:17:20;18.00;99.90
15951;DHT22;8074;48.112;11.570;2022-09-09T17:19:48;17.90;99.90
15951;DHT22;8074;48.112;11.570;2022-09-09T17:22:16;17.70;99.90
15951;DHT22;8074;48.112;11.570;2022-09-09T17:24:57;17.60;99.90
15951;DHT22;8074;48.112;11.570;2022-09-09T17:27:26;17.50;99.90
15951;DHT22;8074;48.112;11.570;2022-09-09T17:29:53;17.30;99.90
15951;DHT22;8074;48.112;11.570;2022-09-09T17:32:20;17.20;99.90
15951;DHT22;8074;48.112;11.570;2022-09-09T17:34:46;17.20;99.90
15951;DHT22;8074;48.112;11.570;2022-09-09T17:37:15;17.10;99.90
15951;DHT22;8074;48.112;11.570;2022-09-09T17:39:43;17.00;99.90
15951;DHT22;8074;48.112;11.570;2022-09-09T17:42:10;16.90;99.90
15951;DHT22;8074;48.112;11.570;2022-09-09T17:44:37;16.80;99.90
15951;DHT22;8074;48.112;11.570;2022-09-09T17:47:05;16.70;99.90
15951;DHT22;8074;48.112;11.570;2022-09-09T17:49:32;16.80;99.90
15951;DHT22;8074;48.112;11.570;2022-09-09T17:51:59;16.90;99.90
15951;DHT22;8074;48.112;11.570;2022-09-09T17:54:28;16.80;99.90